sensor_id;sensor_type;location;lat;lon;timestamp;temperature;humidity
53152;DHT22;39234;53.158;6.322;2022-09-09T00:02:21;13.80;99.90
53152;DHT22;39234;53.158;6.322;2022-09-09T00:07:58;13.80;99.90
53152;DHT22;39234;53.158;6.322;2022-09-09T00:10:28;13.80;99.90
53152;DHT22;39234;53.158;6.322;2022-09-09T00:13:05;13.70;99.90
53152;DHT22;39234;53.158;6.322;2022-09-09T00:15:41;13.70;99.90
53152;DHT22;39234;53.158;6.322;2022-09-09T00:21:13;13.80;99.90
53152;DHT22;39234;53.158;6.322;2022-09-09T00:26:22;13.60;99.90
53152;DHT22;39234;53.158;6.322;2022-09-09T00:29:00;13.60;99.90
53152;DHT22;39234;53.158;6.322;2022-09-09T00:31:31;13.70;99.90
53152;DHT22;39234;53.158;6.322;2022-09-09T00:34:09;13.40;99.90
53152;DHT22;39234;53.158;6.322;2022-09-09T00:36:38;13.70;99.90
53152;DHT22;39234;53.158;6.322;2022-09-09T00:39:05;13.30;99.90
53152;DHT22;39234;53.158;6.322;2022-09-09T00:47:55;13.50;99.90
53152;DHT22;39234;53.158;6.322;2022-09-09T00:50:09;13.30;99.90
53152;DHT22;39234;53.158;6.322;2022-09-09T00:55:21;13.20;99.90
53152;DHT22;39234;53.158;6.322;2022-09-09T00:57:52;13.30;99.90
53152;DHT22;39234;53.158;6.322;2022-09-09T01:00:27;13.30;99.90
53152;DHT22;39234;53.158;6.322;2022-09-09T01:05:51;13.30;99.90
53152;DHT22;39234;53.158;6.322;2022-09-09T01:11:00;13.20;99.90
53152;DHT22;39234;53.158;6.322;2022-09-09T01:13:33;13.10;99.90
53152;DHT22;39234;53.158;6.322;2022-09-09T01:16:04;13.10;99.90
53152;DHT22;39234;53.158;6.322;2022-09-09T01:18:40;13.10;99.90
53152;DHT22;39234;53.158;6.322;2022-09-09T01:24:38;13.20;99.90
53152;DHT22;39234;53.158;6.322;2022-09-09T01:27:06;13.00;99.90
53152;DHT22;39234;53.158;6.322;2022-09-09T01:29:33;13.00;99.90
53152;DHT22;39234;53.158;6.322;2022-09-09T01:32:01;13.80;99.90
53152;DHT22;39234;53.158;6.322;2022-09-09T01:34:30;14.40;99.90
53152;DHT22;39234;53.158;6.322;2022-09-09T01:37:09;12.90;99.90
53152;DHT22;39234;53.158;6.322;2022-09-09T01:39:37;13.00;99.90
53152;DHT22;39234;53.158;6.322;2022-09-09T01:42:07;13.00;99.90
53152;DHT22;39234;53.158;6.322;2022-09-09T01:44:34;13.00;99.90
53152;DHT22;39234;53.158;6.322;2022-09-09T01:47:01;13.00;99.90
53152;DHT22;39234;53.158;6.322;2022-09-09T01:49:27;12.90;99.90
53152;DHT22;39234;53.158;6.322;2022-09-09T01:51:54;13.00;99.90
53152;DHT22;39234;53.158;6.322;2022-09-09T01:54:23;12.80;99.90
53152;DHT22;39234;53.158;6.322;2022-09-09T01:57:01;13.00;99.90
53152;DHT22;39234;53.158;6.322;2022-09-09T02:02:17;13.00;99.90
53152;DHT22;39234;53.158;6.322;2022-09-09T02:04:55;12.90;99.90
53152;DHT22;39234;53.158;6.322;2022-09-09T02:07:30;13.10;99.90
53152;DHT22;39234;53.158;6.322;2022-09-09T02:12:35;13.10;99.90
53152;DHT22;39234;53.158;6.322;2022-09-09T02:15:15;13.10;99.90
53152;DHT22;39234;53.158;6.322;2022-09-09T02:17:42;13.20;99.90
53152;DHT22;39234;53.158;6.322;2022-09-09T02:20:11;13.10;99.90
53152;DHT22;39234;53.158;6.322;2022-09-09T02:22:40;13.10;99.90
53152;DHT22;39234;53.158;6.322;2022-09-09T02:25:10;13.60;99.90
53152;DHT22;39234;53.158;6.322;2022-09-09T02:27:39;13.20;99.90
53152;DHT22;39234;53.158;6.322;2022-09-09T02:30:06;13.40;99.90
53152;DHT22;39234;53.158;6.322;2022-09-09T02:32:34;13.40;99.90
53152;DHT22;39234;53.158;6.322;2022-09-09T02:35:08;13.30;99.90
53152;DHT22;39234;53.158;6.322;2022-09-09T02:37:41;13.40;99.90
53152;DHT22;39234;53.158;6.322;2022-09-09T02:40:10;13.20;99.90
53152;DHT22;39234;53.158;6.322;2022-09-09T02:42:44;13.30;99.90
53152;DHT22;39234;53.158;6.322;2022-09-09T02:45:13;13.40;99.90
53152;DHT22;39234;53.158;6.322;2022-09-09T02:53:03;13.50;99.90
53152;DHT22;39234;53.158;6.322;2022-09-09T02:55:47;13.50;99.90
53152;DHT22;39234;53.158;6.322;2022-09-09T02:58:18;13.50;99.90
53152;DHT22;39234;53.158;6.322;2022-09-09T03:00:48;13.60;99.90
53152;DHT22;39234;53.158;6.322;2022-09-09T03:03:15;13.60;99.90
53152;DHT22;39234;53.158;6.322;2022-09-09T03:05:42;13.60;99.90
53152;DHT22;39234;53.158;6.322;2022-09-09T03:08:08;13.60;99.90
53152;DHT22;39234;53.158;6.322;2022-09-09T03:10:35;15.00;99.90
53152;DHT22;39234;53.158;6.322;2022-09-09T03:13:01;13.50;99.90
53152;DHT22;39234;53.158;6.322;2022-09-09T03:15:27;13.40;99.90
53152;DHT22;39234;53.158;6.322;2022-09-09T03:17:57;13.50;99.90
53152;DHT22;39234;53.158;6.322;2022-09-09T03:20:28;13.70;99.90
53152;DHT22;39234;53.158;6.322;2022-09-09T03:22:55;13.80;99.90
53152;DHT22;39234;53.158;6.322;2022-09-09T03:25:22;13.60;99.90
53152;DHT22;39234;53.158;6.322;2022-09-09T03:27:52;13.60;99.90
53152;DHT22;39234;53.158;6.322;2022-09-09T03:30:21;13.60;99.90
53152;DHT22;39234;53.158;6.322;2022-09-09T03:32:46;13.60;99.90
53152;DHT22;39234;53.158;6.322;2022-09-09T03:35:13;13.70;99.90
53152;DHT22;39234;53.158;6.322;2022-09-09T03:37:39;13.70;99.90
53152;DHT22;39234;53.158;6.322;2022-09-09T03:40:05;13.50;99.90
53152;DHT22;39234;53.158;6.322;2022-09-09T03:42:31;13.60;99.90
53152;DHT22;39234;53.158;6.322;2022-09-09T03:44:57;15.60;99.90
53152;DHT22;39234;53.158;6.322;2022-09-09T03:47:25;13.50;99.90
53152;DHT22;39234;53.158;6.322;2022-09-09T03:49:51;13.60;99.90
53152;DHT22;39234;53.158;6.322;2022-09-09T03:52:16;13.50;99.90
53152;DHT22;39234;53.158;6.322;2022-09-09T03:54:43;11.40;99.90
53152;DHT22;39234;53.158;6.322;2022-09-09T03:57:09;13.50;99.90
53152;DHT22;39234;53.158;6.322;2022-09-09T03:59:36;13.60;99.90
53152;DHT22;39234;53.158;6.322;2022-09-09T04:02:02;15.50;99.90
53152;DHT22;39234;53.158;6.322;2022-09-09T04:04:28;13.60;99.90
53152;DHT22;39234;53.158;6.322;2022-09-09T04:06:54;13.40;99.90
53152;DHT22;39234;53.158;6.322;2022-09-09T04:09:19;13.50;99.90
53152;DHT22;39234;53.158;6.322;2022-09-09T04:11:45;13.40;99.90
53152;DHT22;39234;53.158;6.322;2022-09-09T04:14:11;13.60;99.90
53152;DHT22;39234;53.158;6.322;2022-09-09T04:16:38;13.50;99.90
53152;DHT22;39234;53.158;6.322;2022-09-09T04:19:04;15.70;99.90
53152;DHT22;39234;53.158;6.322;2022-09-09T04:21:32;13.50;99.90
53152;DHT22;39234;53.158;6.322;2022-09-09T04:23:57;13.70;99.90
53152;DHT22;39234;53.158;6.322;2022-09-09T04:26:23;14.60;99.90
53152;DHT22;39234;53.158;6.322;2022-09-09T04:28:50;13.80;99.90
53152;DHT22;39234;53.158;6.322;2022-09-09T04:31:20;13.80;99.90
53152;DHT22;39234;53.158;6.322;2022-09-09T04:33:49;13.70;99.90
53152;DHT22;39234;53.158;6.322;2022-09-09T04:36:15;13.70;99.90
53152;DHT22;39234;53.158;6.322;2022-09-09T04:38:41;15.30;99.90
53152;DHT22;39234;53.158;6.322;2022-09-09T04:41:07;13.80;99.90
53152;DHT22;39234;53.158;6.322;2022-09-09T04:43:34;13.90;99.90
53152;DHT22;39234;53.158;6.322;2022-09-09T04:45:59;13.80;99.90
53152;DHT22;39234;53.158;6.322;2022-09-09T04:48:25;16.00;99.90
53152;DHT22;39234;53.158;6.322;2022-09-09T04:50:56;14.30;99.90
53152;DHT22;39234;53.158;6.322;2022-09-09T04:53:22;13.90;99.90
53152;DHT22;39234;53.158;6.322;2022-09-09T04:55:48;14.00;99.90
53152;DHT22;39234;53.158;6.322;2022-09-09T04:58:15;13.80;99.90
53152;DHT22;39234;53.158;6.322;2022-09-09T05:00:40;13.80;99.90
53152;DHT22;39234;53.158;6.322;2022-09-09T05:03:07;14.00;99.90
53152;DHT22;39234;53.158;6.322;2022-09-09T05:05:34;13.90;99.90
53152;DHT22;39234;53.158;6.322;2022-09-09T05:08:04;14.10;99.90
53152;DHT22;39234;53.158;6.322;2022-09-09T05:10:30;13.80;99.90
53152;DHT22;39234;53.158;6.322;2022-09-09T05:12:56;14.00;99.90
53152;DHT22;39234;53.158;6.322;2022-09-09T05:15:22;13.90;99.90
53152;DHT22;39234;53.158;6.322;2022-09-09T05:17:48;13.80;99.90
53152;DHT22;39234;53.158;6.322;2022-09-09T05:20:14;14.00;99.90
53152;DHT22;39234;53.158;6.322;2022-09-09T05:22:40;13.90;99.90
53152;DHT22;39234;53.158;6.322;2022-09-09T05:25:06;14.50;99.90
53152;DHT22;39234;53.158;6.322;2022-09-09T05:27:34;14.10;99.90
53152;DHT22;39234;53.158;6.322;2022-09-09T05:30:00;14.10;99.90
53152;DHT22;39234;53.158;6.322;2022-09-09T05:32:25;14.00;99.90
53152;DHT22;39234;53.158;6.322;2022-09-09T05:34:51;14.00;99.90
53152;DHT22;39234;53.158;6.322;2022-09-09T05:37:18;13.90;99.90
53152;DHT22;39234;53.158;6.322;2022-09-09T05:39:44;14.70;99.90
53152;DHT22;39234;53.158;6.322;2022-09-09T05:42:10;14.10;99.90
53152;DHT22;39234;53.158;6.322;2022-09-09T05:44:35;14.00;99.90
53152;DHT22;39234;53.158;6.322;2022-09-09T05:47:02;14.00;99.90
53152;DHT22;39234;53.158;6.322;2022-09-09T05:49:28;14.00;99.90
53152;DHT22;39234;53.158;6.322;2022-09-09T05:51:54;14.00;99.90
53152;DHT22;39234;53.158;6.322;2022-09-09T05:54:20;14.10;99.90
53152;DHT22;39234;53.158;6.322;2022-09-09T05:56:46;14.00;99.90
53152;DHT22;39234;53.158;6.322;2022-09-09T05:59:11;14.00;99.90
53152;DHT22;39234;53.158;6.322;2022-09-09T06:01:38;14.10;99.90
53152;DHT22;39234;53.158;6.322;2022-09-09T06:04:07;14.10;99.90
53152;DHT22;39234;53.158;6.322;2022-09-09T06:06:36;14.20;99.90
53152;DHT22;39234;53.158;6.322;2022-09-09T06:09:04;14.00;99.90
53152;DHT22;39234;53.158;6.322;2022-09-09T06:11:32;14.20;99.90
53152;DHT22;39234;53.158;6.322;2022-09-09T06:13:59;14.30;99.90
53152;DHT22;39234;53.158;6.322;2022-09-09T06:16:27;14.80;99.90
53152;DHT22;39234;53.158;6.322;2022-09-09T06:18:54;14.20;99.90
53152;DHT22;39234;53.158;6.322;2022-09-09T06:21:21;14.20;99.90
53152;DHT22;39234;53.158;6.322;2022-09-09T06:23:47;14.30;99.90
53152;DHT22;39234;53.158;6.322;2022-09-09T06:26:18;14.50;99.90
53152;DHT22;39234;53.158;6.322;2022-09-09T06:28:45;14.20;99.90
53152;DHT22;39234;53.158;6.322;2022-09-09T06:31:14;14.50;99.90
53152;DHT22;39234;53.158;6.322;2022-09-09T06:33:43;14.90;99.90
53152;DHT22;39234;53.158;6.322;2022-09-09T06:36:21;15.10;99.90
53152;DHT22;39234;53.158;6.322;2022-09-09T06:38:48;15.00;99.90
53152;DHT22;39234;53.158;6.322;2022-09-09T06:41:16;15.30;99.90
53152;DHT22;39234;53.158;6.322;2022-09-09T06:43:42;13.80;99.90
53152;DHT22;39234;53.158;6.322;2022-09-09T06:46:14;15.20;99.90
53152;DHT22;39234;53.158;6.322;2022-09-09T06:48:40;15.20;99.90
53152;DHT22;39234;53.158;6.322;2022-09-09T06:51:28;15.00;99.90
53152;DHT22;39234;53.158;6.322;2022-09-09T06:53:56;15.00;99.90
53152;DHT22;39234;53.158;6.322;2022-09-09T06:56:30;14.80;99.90
53152;DHT22;39234;53.158;6.322;2022-09-09T06:58:58;14.70;99.90
53152;DHT22;39234;53.158;6.322;2022-09-09T07:01:28;14.90;99.90
53152;DHT22;39234;53.158;6.322;2022-09-09T07:03:56;14.90;99.90
53152;DHT22;39234;53.158;6.322;2022-09-09T07:06:32;14.70;99.90
53152;DHT22;39234;53.158;6.322;2022-09-09T07:09:07;14.70;99.90
53152;DHT22;39234;53.158;6.322;2022-09-09T07:11:47;14.80;99.90
53152;DHT22;39234;53.158;6.322;2022-09-09T07:14:13;14.80;99.90
53152;DHT22;39234;53.158;6.322;2022-09-09T07:16:43;14.80;99.90
53152;DHT22;39234;53.158;6.322;2022-09-09T07:19:10;14.80;99.90
53152;DHT22;39234;53.158;6.322;2022-09-09T07:21:36;15.60;99.90
53152;DHT22;39234;53.158;6.322;2022-09-09T07:24:02;14.90;99.90
53152;DHT22;39234;53.158;6.322;2022-09-09T07:26:30;14.90;99.90
53152;DHT22;39234;53.158;6.322;2022-09-09T07:28:56;15.00;99.90
53152;DHT22;39234;53.158;6.322;2022-09-09T07:31:26;15.40;99.90
53152;DHT22;39234;53.158;6.322;2022-09-09T07:33:52;15.20;99.90
53152;DHT22;39234;53.158;6.322;2022-09-09T07:36:25;15.30;99.90
53152;DHT22;39234;53.158;6.322;2022-09-09T07:38:53;15.50;99.90
53152;DHT22;39234;53.158;6.322;2022-09-09T07:41:47;15.40;99.90
53152;DHT22;39234;53.158;6.322;2022-09-09T07:44:18;15.40;99.90
53152;DHT22;39234;53.158;6.322;2022-09-09T07:46:45;15.60;99.90
53152;DHT22;39234;53.158;6.322;2022-09-09T07:49:12;15.70;99.90
53152;DHT22;39234;53.158;6.322;2022-09-09T07:51:40;15.70;99.90
53152;DHT22;39234;53.158;6.322;2022-09-09T07:54:09;15.80;99.90
53152;DHT22;39234;53.158;6.322;2022-09-09T07:56:36;15.70;99.90
53152;DHT22;39234;53.158;6.322;2022-09-09T07:59:02;15.70;99.90
53152;DHT22;39234;53.158;6.322;2022-09-09T08:01:52;15.80;99.90
53152;DHT22;39234;53.158;6.322;2022-09-09T08:04:22;15.90;99.90
53152;DHT22;39234;53.158;6.322;2022-09-09T08:06:54;15.90;99.90
53152;DHT22;39234;53.158;6.322;2022-09-09T08:09:20;15.80;99.90
53152;DHT22;39234;53.158;6.322;2022-09-09T08:11:47;15.80;99.90
53152;DHT22;39234;53.158;6.322;2022-09-09T08:14:13;15.80;99.90
53152;DHT22;39234;53.158;6.322;2022-09-09T08:16:42;15.80;99.90
53152;DHT22;39234;53.158;6.322;2022-09-09T08:19:08;16.10;99.90
53152;DHT22;39234;53.158;6.322;2022-09-09T08:21:36;16.00;99.90
53152;DHT22;39234;53.158;6.322;2022-09-09T08:24:03;16.10;99.90
53152;DHT22;39234;53.158;6.322;2022-09-09T08:26:35;16.20;99.90
53152;DHT22;39234;53.158;6.322;2022-09-09T08:29:04;16.10;99.90
53152;DHT22;39234;53.158;6.322;2022-09-09T08:31:39;16.20;99.90
53152;DHT22;39234;53.158;6.322;2022-09-09T08:34:06;16.30;99.90
53152;DHT22;39234;53.158;6.322;2022-09-09T08:36:38;16.70;99.90
53152;DHT22;39234;53.158;6.322;2022-09-09T08:39:05;16.60;99.90
53152;DHT22;39234;53.158;6.322;2022-09-09T08:44:10;17.00;99.90
53152;DHT22;39234;53.158;6.322;2022-09-09T08:47:19;17.20;99.90
53152;DHT22;39234;53.158;6.322;2022-09-09T08:50:30;17.40;99.90
53152;DHT22;39234;53.158;6.322;2022-09-09T08:55:56;17.40;99.90
53152;DHT22;39234;53.158;6.322;2022-09-09T08:58:29;17.60;99.90
53152;DHT22;39234;53.158;6.322;2022-09-09T09:03:52;18.10;99.90
53152;DHT22;39234;53.158;6.322;2022-09-09T09:11:44;18.30;99.90
53152;DHT22;39234;53.158;6.322;2022-09-09T09:14:22;18.30;99.90
53152;DHT22;39234;53.158;6.322;2022-09-09T09:17:01;18.30;99.90
53152;DHT22;39234;53.158;6.322;2022-09-09T09:19:30;18.10;99.90
53152;DHT22;39234;53.158;6.322;2022-09-09T09:22:05;18.30;99.90
53152;DHT22;39234;53.158;6.322;2022-09-09T09:30:25;18.50;99.90
53152;DHT22;39234;53.158;6.322;2022-09-09T09:35:28;18.40;99.90
53152;DHT22;39234;53.158;6.322;2022-09-09T09:37:54;18.20;99.90
53152;DHT22;39234;53.158;6.322;2022-09-09T09:40:22;18.50;99.90
53152;DHT22;39234;53.158;6.322;2022-09-09T09:42:54;18.30;99.90
53152;DHT22;39234;53.158;6.322;2022-09-09T09:45:41;18.20;99.90
53152;DHT22;39234;53.158;6.322;2022-09-09T09:48:12;18.10;99.90
53152;DHT22;39234;53.158;6.322;2022-09-09T09:50:49;18.00;99.90
53152;DHT22;39234;53.158;6.322;2022-09-09T09:53:30;17.90;99.90
53152;DHT22;39234;53.158;6.322;2022-09-09T09:56:05;17.70;99.90
53152;DHT22;39234;53.158;6.322;2022-09-09T09:58:52;17.80;99.90
53152;DHT22;39234;53.158;6.322;2022-09-09T10:01:30;17.80;99.90
53152;DHT22;39234;53.158;6.322;2022-09-09T10:04:19;17.60;99.90
53152;DHT22;39234;53.158;6.322;2022-09-09T10:06:46;17.70;99.90
53152;DHT22;39234;53.158;6.322;2022-09-09T10:20:23;17.70;99.90
53152;DHT22;39234;53.158;6.322;2022-09-09T10:31:30;18.60;99.90
53152;DHT22;39234;53.158;6.322;2022-09-09T10:37:06;18.80;99.90
53152;DHT22;39234;53.158;6.322;2022-09-09T10:39:38;18.80;99.90
53152;DHT22;39234;53.158;6.322;2022-09-09T10:42:14;18.80;99.90
53152;DHT22;39234;53.158;6.322;2022-09-09T10:50:15;18.80;99.90
53152;DHT22;39234;53.158;6.322;2022-09-09T10:55:43;19.00;99.90
53152;DHT22;39234;53.158;6.322;2022-09-09T10:58:14;19.70;99.90
53152;DHT22;39234;53.158;6.322;2022-09-09T11:00:44;18.90;99.90
53152;DHT22;39234;53.158;6.322;2022-09-09T11:03:25;18.90;99.90
53152;DHT22;39234;53.158;6.322;2022-09-09T11:06:04;19.20;99.90
53152;DHT22;39234;53.158;6.322;2022-09-09T11:08:32;19.10;99.90
53152;DHT22;39234;53.158;6.322;2022-09-09T11:11:12;19.00;99.90
53152;DHT22;39234;53.158;6.322;2022-09-09T11:19:05;19.10;99.90
53152;DHT22;39234;53.158;6.322;2022-09-09T11:21:47;18.60;99.90
53152;DHT22;39234;53.158;6.322;2022-09-09T11:26:52;19.60;99.90
53152;DHT22;39234;53.158;6.322;2022-09-09T11:35:21;20.10;99.90
53152;DHT22;39234;53.158;6.322;2022-09-09T11:40:28;20.00;99.90
53152;DHT22;39234;53.158;6.322;2022-09-09T11:43:04;19.90;99.90
53152;DHT22;39234;53.158;6.322;2022-09-09T11:45:31;19.70;99.90
53152;DHT22;39234;53.158;6.322;2022-09-09T11:48:00;19.50;99.90
53152;DHT22;39234;53.158;6.322;2022-09-09T11:50:28;19.60;99.90
53152;DHT22;39234;53.158;6.322;2022-09-09T11:53:18;19.60;99.90
53152;DHT22;39234;53.158;6.322;2022-09-09T11:56:10;19.60;99.90
53152;DHT22;39234;53.158;6.322;2022-09-09T11:58:41;19.70;99.90
53152;DHT22;39234;53.158;6.322;2022-09-09T12:01:34;19.80;99.90
53152;DHT22;39234;53.158;6.322;2022-09-09T12:06:46;19.70;99.90
53152;DHT22;39234;53.158;6.322;2022-09-09T12:10:37;19.70;99.90
53152;DHT22;39234;53.158;6.322;2022-09-09T12:12:35;19.40;99.90
53152;DHT22;39234;53.158;6.322;2022-09-09T12:17:37;19.40;99.90
53152;DHT22;39234;53.158;6.322;2022-09-09T12:20:13;19.30;99.90
53152;DHT22;39234;53.158;6.322;2022-09-09T12:28:04;19.10;99.90
53152;DHT22;39234;53.158;6.322;2022-09-09T12:31:22;19.30;99.90
53152;DHT22;39234;53.158;6.322;2022-09-09T12:33:21;19.40;99.90
53152;DHT22;39234;53.158;6.322;2022-09-09T12:36:12;20.10;99.90
53152;DHT22;39234;53.158;6.322;2022-09-09T12:38:43;20.30;99.90
53152;DHT22;39234;53.158;6.322;2022-09-09T12:41:23;20.00;99.90
53152;DHT22;39234;53.158;6.322;2022-09-09T12:43:50;20.20;99.90
53152;DHT22;39234;53.158;6.322;2022-09-09T12:46:30;20.40;99.90
53152;DHT22;39234;53.158;6.322;2022-09-09T12:48:59;20.80;99.90
53152;DHT22;39234;53.158;6.322;2022-09-09T12:51:32;20.40;99.90
53152;DHT22;39234;53.158;6.322;2022-09-09T12:53:59;20.60;99.90
53152;DHT22;39234;53.158;6.322;2022-09-09T12:56:28;20.50;99.90
53152;DHT22;39234;53.158;6.322;2022-09-09T12:58:56;20.30;99.90
53152;DHT22;39234;53.158;6.322;2022-09-09T13:01:32;20.10;99.90
53152;DHT22;39234;53.158;6.322;2022-09-09T13:04:01;20.40;99.90
53152;DHT22;39234;53.158;6.322;2022-09-09T13:06:31;20.40;99.90
53152;DHT22;39234;53.158;6.322;2022-09-09T13:09:00;21.30;99.90
53152;DHT22;39234;53.158;6.322;2022-09-09T13:11:37;20.50;99.90
53152;DHT22;39234;53.158;6.322;2022-09-09T13:14:04;20.50;99.90
53152;DHT22;39234;53.158;6.322;2022-09-09T13:16:35;20.30;99.90
53152;DHT22;39234;53.158;6.322;2022-09-09T13:19:07;20.20;99.90
53152;DHT22;39234;53.158;6.322;2022-09-09T13:21:34;20.10;99.90
53152;DHT22;39234;53.158;6.322;2022-09-09T13:24:00;20.10;99.90
53152;DHT22;39234;53.158;6.322;2022-09-09T13:26:29;20.20;99.90
53152;DHT22;39234;53.158;6.322;2022-09-09T13:29:09;20.10;99.90
53152;DHT22;39234;53.158;6.322;2022-09-09T13:31:40;19.90;99.90
53152;DHT22;39234;53.158;6.322;2022-09-09T13:34:29;19.80;99.90
53152;DHT22;39234;53.158;6.322;2022-09-09T13:39:53;20.40;99.90
53152;DHT22;39234;53.158;6.322;2022-09-09T13:42:28;20.50;99.90
53152;DHT22;39234;53.158;6.322;2022-09-09T13:44:55;20.40;99.90
53152;DHT22;39234;53.158;6.322;2022-09-09T13:47:29;20.30;99.90
53152;DHT22;39234;53.158;6.322;2022-09-09T13:49:55;19.90;99.90
53152;DHT22;39234;53.158;6.322;2022-09-09T13:52:21;19.70;99.90
53152;DHT22;39234;53.158;6.322;2022-09-09T13:54:52;19.50;99.90
53152;DHT22;39234;53.158;6.322;2022-09-09T13:57:25;19.30;99.90
53152;DHT22;39234;53.158;6.322;2022-09-09T13:59:52;19.20;99.90
53152;DHT22;39234;53.158;6.322;2022-09-09T14:02:18;19.10;99.90
53152;DHT22;39234;53.158;6.322;2022-09-09T14:04:44;18.90;99.90
53152;DHT22;39234;53.158;6.322;2022-09-09T14:07:15;18.80;99.90
53152;DHT22;39234;53.158;6.322;2022-09-09T14:09:41;18.80;99.90
53152;DHT22;39234;53.158;6.322;2022-09-09T14:12:11;18.90;99.90
53152;DHT22;39234;53.158;6.322;2022-09-09T14:14:37;18.90;99.90
53152;DHT22;39234;53.158;6.322;2022-09-09T14:17:03;18.80;99.90
53152;DHT22;39234;53.158;6.322;2022-09-09T14:19:29;18.90;99.90
53152;DHT22;39234;53.158;6.322;2022-09-09T14:21:57;20.30;99.90
53152;DHT22;39234;53.158;6.322;2022-09-09T14:24:23;18.60;99.90
53152;DHT22;39234;53.158;6.322;2022-09-09T14:26:49;18.70;99.90
53152;DHT22;39234;53.158;6.322;2022-09-09T14:29:14;18.60;99.90
53152;DHT22;39234;53.158;6.322;2022-09-09T14:31:40;18.50;99.90
53152;DHT22;39234;53.158;6.322;2022-09-09T14:34:06;18.40;99.90
53152;DHT22;39234;53.158;6.322;2022-09-09T14:36:32;18.40;99.90
53152;DHT22;39234;53.158;6.322;2022-09-09T14:38:58;18.20;99.90
53152;DHT22;39234;53.158;6.322;2022-09-09T14:41:24;18.40;99.90
53152;DHT22;39234;53.158;6.322;2022-09-09T14:43:50;18.40;99.90
53152;DHT22;39234;53.158;6.322;2022-09-09T14:46:19;18.50;99.90
53152;DHT22;39234;53.158;6.322;2022-09-09T14:48:45;18.60;99.90
53152;DHT22;39234;53.158;6.322;2022-09-09T14:51:19;18.90;99.90
53152;DHT22;39234;53.158;6.322;2022-09-09T14:53:46;19.20;99.90
53152;DHT22;39234;53.158;6.322;2022-09-09T14:56:15;19.50;99.90
53152;DHT22;39234;53.158;6.322;2022-09-09T14:58:41;19.60;99.90
53152;DHT22;39234;53.158;6.322;2022-09-09T15:01:15;19.20;99.90
53152;DHT22;39234;53.158;6.322;2022-09-09T15:03:42;19.30;99.90
53152;DHT22;39234;53.158;6.322;2022-09-09T15:06:11;19.00;99.90
53152;DHT22;39234;53.158;6.322;2022-09-09T15:08:39;18.90;99.90
53152;DHT22;39234;53.158;6.322;2022-09-09T15:11:06;18.90;99.90
53152;DHT22;39234;53.158;6.322;2022-09-09T15:13:36;19.10;99.90
53152;DHT22;39234;53.158;6.322;2022-09-09T15:16:17;19.30;99.90
53152;DHT22;39234;53.158;6.322;2022-09-09T15:18:43;19.30;99.90
53152;DHT22;39234;53.158;6.322;2022-09-09T15:21:18;19.50;99.90
53152;DHT22;39234;53.158;6.322;2022-09-09T15:23:45;19.30;99.90
53152;DHT22;39234;53.158;6.322;2022-09-09T15:26:11;19.20;99.90
53152;DHT22;39234;53.158;6.322;2022-09-09T15:28:39;19.30;99.90
53152;DHT22;39234;53.158;6.322;2022-09-09T15:33:49;19.10;99.90
53152;DHT22;39234;53.158;6.322;2022-09-09T15:36:23;19.00;99.90
53152;DHT22;39234;53.158;6.322;2022-09-09T15:38:49;19.10;99.90
53152;DHT22;39234;53.158;6.322;2022-09-09T15:41:16;18.90;99.90
53152;DHT22;39234;53.158;6.322;2022-09-09T15:43:44;19.00;99.90
53152;DHT22;39234;53.158;6.322;2022-09-09T15:48:45;18.80;99.90
53152;DHT22;39234;53.158;6.322;2022-09-09T15:51:11;18.80;99.90
53152;DHT22;39234;53.158;6.322;2022-09-09T15:53:38;18.70;99.90
53152;DHT22;39234;53.158;6.322;2022-09-09T15:56:07;18.70;99.90
53152;DHT22;39234;53.158;6.322;2022-09-09T15:58:34;18.50;99.90
53152;DHT22;39234;53.158;6.322;2022-09-09T16:01:06;18.60;99.90
53152;DHT22;39234;53.158;6.322;2022-09-09T16:03:40;18.50;99.90
53152;DHT22;39234;53.158;6.322;2022-09-09T16:06:08;18.30;99.90
53152;DHT22;39234;53.158;6.322;2022-09-09T16:08:36;18.20;99.90
53152;DHT22;39234;53.158;6.322;2022-09-09T16:11:06;18.10;99.90
53152;DHT22;39234;53.158;6.322;2022-09-09T16:13:35;18.00;99.90
53152;DHT22;39234;53.158;6.322;2022-09-09T16:16:03;17.90;99.90
53152;DHT22;39234;53.158;6.322;2022-09-09T16:18:36;17.90;76.00
53152;DHT22;39234;53.158;6.322;2022-09-09T16:21:03;17.80;82.20
53152;DHT22;39234;53.158;6.322;2022-09-09T16:23:31;17.90;84.10
53152;DHT22;39234;53.158;6.322;2022-09-09T16:25:57;17.60;99.90
53152;DHT22;39234;53.158;6.322;2022-09-09T16:28:23;17.40;99.90
53152;DHT22;39234;53.158;6.322;2022-09-09T16:30:49;17.40;99.90
53152;DHT22;39234;53.158;6.322;2022-09-09T16:33:16;17.40;84.10
53152;DHT22;39234;53.158;6.322;2022-09-09T16:35:42;17.40;81.40
53152;DHT22;39234;53.158;6.322;2022-09-09T16:38:08;17.20;99.90
53152;DHT22;39234;53.158;6.322;2022-09-09T16:40:37;17.10;86.70
53152;DHT22;39234;53.158;6.322;2022-09-09T16:43:06;17.10;90.50
53152;DHT22;39234;53.158;6.322;2022-09-09T16:45:32;17.20;91.80
53152;DHT22;39234;53.158;6.322;2022-09-09T16:47:59;17.20;92.30
53152;DHT22;39234;53.158;6.322;2022-09-09T16:50:26;17.40;92.30
53152;DHT22;39234;53.158;6.322;2022-09-09T16:52:52;17.20;91.70
53152;DHT22;39234;53.158;6.322;2022-09-09T16:55:19;17.20;91.90
53152;DHT22;39234;53.158;6.322;2022-09-09T16:57:47;17.00;91.90
53152;DHT22;39234;53.158;6.322;2022-09-09T17:00:16;17.10;92.10
53152;DHT22;39234;53.158;6.322;2022-09-09T17:02:42;17.00;92.90
53152;DHT22;39234;53.158;6.322;2022-09-09T17:05:09;17.20;92.20
53152;DHT22;39234;53.158;6.322;2022-09-09T17:07:35;17.00;93.60
53152;DHT22;39234;53.158;6.322;2022-09-09T17:10:01;16.80;92.90
53152;DHT22;39234;53.158;6.322;2022-09-09T17:12:27;17.10;92.10
53152;DHT22;39234;53.158;6.322;2022-09-09T17:14:53;19.30;93.50
53152;DHT22;39234;53.158;6.322;2022-09-09T17:17:20;17.00;94.10
53152;DHT22;39234;53.158;6.322;2022-09-09T17:19:46;16.90;94.60
53152;DHT22;39234;53.158;6.322;2022-09-09T17:22:12;17.00;94.90
53152;DHT22;39234;53.158;6.322;2022-09-09T17:24:38;16.80;95.70
53152;DHT22;39234;53.158;6.322;2022-09-09T17:27:05;17.00;96.80
53152;DHT22;39234;53.158;6.322;2022-09-09T17:29:31;17.00;97.40
53152;DHT22;39234;53.158;6.322;2022-09-09T17:31:57;17.00;99.10
53152;DHT22;39234;53.158;6.322;2022-09-09T17:34:23;16.80;98.90
53152;DHT22;39234;53.158;6.322;2022-09-09T17:36:50;16.90;98.30
53152;DHT22;39234;53.158;6.322;2022-09-09T17:39:16;16.60;99.20
53152;DHT22;39234;53.158;6.322;2022-09-09T17:41:41;16.50;99.20
53152;DHT22;39234;53.158;6.322;2022-09-09T17:44:08;16.60;99.80
53152;DHT22;39234;53.158;6.322;2022-09-09T17:46:36;16.60;99.90
53152;DHT22;39234;53.158;6.322;2022-09-09T17:49:05;16.60;99.90
53152;DHT22;39234;53.158;6.322;2022-09-09T17:51:32;16.50;99.90
53152;DHT22;39234;53.158;6.322;2022-09-09T17:54:01;16.70;99.90